Time;durP1;ratioP1;P1;durP2;ratioP2;P2;SDS_P1;SDS_P2;PMS_P1;PMS_P2;Temp;Humidity;BMP_temperature;BMP_pressure;BME280_temperature;BME280_humidity;BME280_pressure;Samples;Min_cycle;Max_cycle;Signal;HPM_P1;HPM_P2
2023/10/06 00:01:25;;;;;;;10.02;5.72;;;;;;;;;;4986561;28;20046;-58
2023/10/06 00:03:57;;;;;;;7.63;5.43;;;;;;;;;;4987213;28;20446;-58
2023/10/06 00:06:22;;;;;;;8.18;5.15;;;;;;;;;;4987219;28;20100;-58
2023/10/06 00:08:51;;;;;;;9.90;5.30;;;;;;;;;;5002527;28;20046;-58
2023/10/06 00:11:28;;;;;;;8.27;5.57;;;;;;;;;;4986783;28;20569;-58
2023/10/06 00:14:00;;;;;;;8.48;5.40;;;;;;;;;;4986838;28;20136;-59
2023/10/06 00:16:26;;;;;;;8.73;5.65;;;;;;;;;;4986743;28;20035;-58
2023/10/06 00:18:53;;;;;;;8.95;5.18;;;;;;;;;;4986201;28;20104;-59
2023/10/06 00:21:21;;;;;;;9.48;5.28;;;;;;;;;;4986468;28;20120;-59
2023/10/06 00:23:47;;;;;;;7.93;5.43;;;;;;;;;;4984560;28;20049;-59
2023/10/06 00:26:16;;;;;;;10.25;5.55;;;;;;;;;;4985666;28;20042;-59
2023/10/06 00:28:44;;;;;;;9.20;4.90;;;;;;;;;;4986886;28;20061;-59
2023/10/06 00:31:11;;;;;;;7.43;4.93;;;;;;;;;;4986254;28;20038;-59
2023/10/06 00:33:41;;;;;;;8.85;5.15;;;;;;;;;;4985182;28;20050;-60
2023/10/06 00:36:13;;;;;;;10.18;5.18;;;;;;;;;;4983912;28;20157;-59
2023/10/06 00:38:40;;;;;;;9.02;5.05;;;;;;;;;;4985676;28;20030;-60
2023/10/06 00:41:07;;;;;;;7.72;5.00;;;;;;;;;;4985645;28;20459;-58
2023/10/06 00:43:39;;;;;;;7.82;5.68;;;;;;;;;;4986498;28;20551;-58
2023/10/06 00:46:07;;;;;;;9.13;5.07;;;;;;;;;;4986820;28;20034;-59
2023/10/06 00:48:34;;;;;;;7.60;5.03;;;;;;;;;;4986217;28;20666;-57
2023/10/06 00:51:01;;;;;;;7.47;5.07;;;;;;;;;;4989679;28;20027;-59
2023/10/06 00:53:31;;;;;;;8.73;5.32;;;;;;;;;;4987462;28;20113;-59
2023/10/06 00:55:57;;;;;;;8.35;5.30;;;;;;;;;;4983390;28;20026;-59
2023/10/06 00:58:22;;;;;;;8.80;5.38;;;;;;;;;;4990505;28;20041;-58
2023/10/06 01:00:47;;;;;;;6.80;4.68;;;;;;;;;;4968829;28;20058;-58
2023/10/06 01:03:14;;;;;;;9.05;4.97;;;;;;;;;;4986668;28;20045;-59
2023/10/06 01:05:46;;;;;;;9.68;5.13;;;;;;;;;;4985058;28;20100;-58
2023/10/06 01:08:12;;;;;;;9.05;5.10;;;;;;;;;;4984943;28;20641;-59
2023/10/06 01:10:37;;;;;;;9.23;5.05;;;;;;;;;;4985958;28;20137;-58
2023/10/06 01:13:12;;;;;;;8.00;5.03;;;;;;;;;;4984817;28;20037;-60
2023/10/06 01:15:45;;;;;;;6.88;5.00;;;;;;;;;;4983684;28;20039;-59
2023/10/06 01:18:20;;;;;;;9.68;5.15;;;;;;;;;;4984875;28;20124;-58
2023/10/06 01:20:47;;;;;;;10.20;5.20;;;;;;;;;;4985865;28;20460;-59
2023/10/06 01:23:33;;;;;;;9.18;5.13;;;;;;;;;;4985427;28;20023;-59
2023/10/06 01:26:00;;;;;;;7.07;4.78;;;;;;;;;;4985779;28;20407;-59
2023/10/06 01:28:25;;;;;;;8.07;4.90;;;;;;;;;;4981333;28;20043;-58
2023/10/06 01:30:51;;;;;;;8.77;5.37;;;;;;;;;;4978854;28;20046;-59
2023/10/06 01:33:16;;;;;;;7.30;5.00;;;;;;;;;;4983877;28;20420;-59
2023/10/06 01:35:42;;;;;;;9.13;5.07;;;;;;;;;;4984649;28;20113;-58
2023/10/06 01:38:14;;;;;;;8.13;5.25;;;;;;;;;;4985686;28;20137;-58
2023/10/06 01:40:50;;;;;;;7.00;4.75;;;;;;;;;;4985808;28;20133;-58
2023/10/06 01:43:15;;;;;;;11.13;5.28;;;;;;;;;;4985853;28;20065;-58
2023/10/06 01:45:43;;;;;;;7.97;5.18;;;;;;;;;;4985564;28;20030;-58
2023/10/06 01:50:35;;;;;;;8.70;5.47;;;;;;;;;;4983842;28;20101;-58
2023/10/06 01:53:05;;;;;;;8.77;4.57;;;;;;;;;;4992630;28;20037;-58
2023/10/06 01:55:35;;;;;;;;;;;;;;;;;;4982926;28;20050;-59
2023/10/06 01:58:03;;;;;;;8.02;5.07;;;;;;;;;;4980217;28;20049;-58
2023/10/06 02:00:31;;;;;;;10.43;5.43;;;;;;;;;;4987269;28;20051;-59
2023/10/06 02:02:57;;;;;;;8.43;4.85;;;;;;;;;;4987498;28;20060;-58
2023/10/06 02:05:22;;;;;;;8.15;4.90;;;;;;;;;;4988762;28;20481;-59
2023/10/06 02:07:47;;;;;;;8.50;5.33;;;;;;;;;;4988964;28;20442;-59
2023/10/06 02:10:15;;;;;;;8.98;5.30;;;;;;;;;;4989390;28;20273;-59
2023/10/06 02:12:40;;;;;;;7.93;4.95;;;;;;;;;;4988126;28;20172;-60
2023/10/06 02:15:12;;;;;;;10.98;5.28;;;;;;;;;;4987693;28;20123;-59
2023/10/06 02:17:37;;;;;;;8.73;4.88;;;;;;;;;;4988818;28;20065;-59
2023/10/06 02:20:12;;;;;;;7.18;4.82;;;;;;;;;;4989138;28;20569;-59
2023/10/06 02:22:37;;;;;;;9.57;5.05;;;;;;;;;;4989778;28;20038;-61
2023/10/06 02:25:05;;;;;;;8.43;4.82;;;;;;;;;;4982644;28;20095;-59
2023/10/06 02:27:36;;;;;;;8.65;5.03;;;;;;;;;;4981086;28;20515;-59
2023/10/06 02:30:10;;;;;;;9.95;5.22;;;;;;;;;;4988459;28;20134;-59
2023/10/06 02:32:35;;;;;;;9.48;5.00;;;;;;;;;;4988546;28;20033;-59
2023/10/06 02:35:01;;;;;;;8.55;4.95;;;;;;;;;;4987667;28;20030;-60
2023/10/06 02:37:26;;;;;;;7.05;4.60;;;;;;;;;;4988607;28;20442;-59
2023/10/06 02:39:51;;;;;;;9.30;4.90;;;;;;;;;;4986595;28;20043;-58
2023/10/06 02:42:19;;;;;;;10.93;4.72;;;;;;;;;;4988457;28;20258;-59
2023/10/06 02:44:44;;;;;;;7.00;4.82;;;;;;;;;;4989069;28;20030;-58
2023/10/06 02:47:10;;;;;;;8.68;5.20;;;;;;;;;;4988646;28;20030;-58
2023/10/06 02:49:37;;;;;;;9.32;4.93;;;;;;;;;;4988789;28;20567;-59
2023/10/06 02:52:13;;;;;;;8.35;4.90;;;;;;;;;;4987672;28;20481;-59
2023/10/06 02:54:44;;;;;;;10.40;4.90;;;;;;;;;;4988007;28;20515;-59
2023/10/06 02:57:11;;;;;;;8.75;5.38;;;;;;;;;;4987067;28;20517;-59
2023/10/06 02:59:36;;;;;;;8.00;4.85;;;;;;;;;;4987929;28;20042;-59
2023/10/06 03:02:06;;;;;;;7.25;4.28;;;;;;;;;;4986979;28;20588;-60
2023/10/06 03:04:35;;;;;;;8.00;5.00;;;;;;;;;;4993410;28;20030;-59
2023/10/06 03:07:01;;;;;;;6.85;4.68;;;;;;;;;;4983308;28;20043;-59
2023/10/06 03:09:44;;;;;;;7.43;4.38;;;;;;;;;;4977124;28;20045;-58
2023/10/06 03:12:31;;;;;;;9.25;4.65;;;;;;;;;;4986968;28;20547;-60
2023/10/06 03:14:56;;;;;;;7.97;4.88;;;;;;;;;;4986891;28;20487;-58
2023/10/06 03:17:22;;;;;;;9.90;4.20;;;;;;;;;;4986282;28;20037;-58
2023/10/06 03:22:35;;;;;;;7.30;4.68;;;;;;;;;;4986390;28;20397;-60
2023/10/06 03:25:00;;;;;;;7.82;4.70;;;;;;;;;;4986476;28;20061;-59
2023/10/06 03:27:26;;;;;;;7.78;4.88;;;;;;;;;;4987970;28;20463;-59
2023/10/06 03:29:55;;;;;;;7.25;4.85;;;;;;;;;;4987873;28;20041;-60
2023/10/06 03:32:39;;;;;;;9.13;4.77;;;;;;;;;;4986613;28;20031;-58
2023/10/06 03:37:51;;;;;;;7.93;4.80;;;;;;;;;;4985715;28;20272;-59
2023/10/06 03:41:07;;;;;;;7.63;4.60;;;;;;;;;;4983392;28;20055;-59
2023/10/06 03:46:01;;;;;;;7.65;4.28;;;;;;;;;;4989875;28;20037;-59
2023/10/06 03:48:29;;;;;;;7.55;4.28;;;;;;;;;;4990887;28;20034;-59
2023/10/06 03:50:54;;;;;;;8.55;4.55;;;;;;;;;;4986045;28;20041;-59
2023/10/06 03:53:20;;;;;;;9.20;4.70;;;;;;;;;;4981451;28;20027;-59
2023/10/06 03:55:45;;;;;;;6.15;4.18;;;;;;;;;;4980345;28;20121;-60
2023/10/06 03:58:13;;;;;;;7.65;4.53;;;;;;;;;;4987752;28;20476;-58
2023/10/06 04:00:40;;;;;;;5.90;4.15;;;;;;;;;;4987018;28;20545;-58
2023/10/06 04:03:13;;;;;;;6.97;4.35;;;;;;;;;;4987244;28;20529;-59
2023/10/06 04:05:44;;;;;;;6.80;4.05;;;;;;;;;;5001706;28;20117;-58
2023/10/06 04:08:12;;;;;;;8.07;3.95;;;;;;;;;;4986940;28;20041;-59
2023/10/06 04:10:40;;;;;;;8.48;4.43;;;;;;;;;;4985289;28;20038;-59
2023/10/06 04:13:08;;;;;;;6.57;3.92;;;;;;;;;;4986769;28;20034;-58
2023/10/06 04:15:39;;;;;;;7.05;3.78;;;;;;;;;;4981941;28;20415;-59
2023/10/06 04:18:09;;;;;;;8.35;3.85;;;;;;;;;;4980824;28;20022;-59
2023/10/06 04:20:35;;;;;;;7.00;4.20;;;;;;;;;;4987237;28;20038;-59
2023/10/06 04:23:02;;;;;;;6.10;3.67;;;;;;;;;;4981086;28;20444;-59
2023/10/06 04:25:27;;;;;;;6.55;3.95;;;;;;;;;;4967173;28;20113;-58
2023/10/06 04:27:53;;;;;;;8.80;4.45;;;;;;;;;;4983978;28;20026;-59
2023/10/06 04:30:18;;;;;;;7.83;3.70;;;;;;;;;;4986407;28;20462;-59
2023/10/06 04:32:44;;;;;;;6.40;3.75;;;;;;;;;;4986506;28;20282;-59
2023/10/06 04:35:19;;;;;;;6.63;3.65;;;;;;;;;;4963585;28;20126;-58
2023/10/06 04:37:46;;;;;;;6.60;3.75;;;;;;;;;;4983603;28;20578;-59
2023/10/06 04:40:16;;;;;;;7.43;3.92;;;;;;;;;;4984580;28;20525;-59
2023/10/06 04:42:42;;;;;;;7.07;3.88;;;;;;;;;;4966083;28;20023;-59
2023/10/06 04:45:07;;;;;;;9.27;3.80;;;;;;;;;;4959570;28;20019;-58
2023/10/06 04:47:36;;;;;;;6.30;4.03;;;;;;;;;;4962175;28;20074;-59
2023/10/06 04:50:02;;;;;;;7.38;3.95;;;;;;;;;;4982865;28;20018;-58
2023/10/06 04:52:27;;;;;;;5.30;3.55;;;;;;;;;;4986751;28;20025;-60
2023/10/06 04:54:53;;;;;;;7.47;3.67;;;;;;;;;;4983892;28;20497;-58
2023/10/06 04:57:18;;;;;;;6.95;3.95;;;;;;;;;;4985959;28;20537;-58
2023/10/06 04:59:45;;;;;;;7.15;3.50;;;;;;;;;;4985875;28;20042;-58
2023/10/06 05:02:11;;;;;;;6.35;3.83;;;;;;;;;;4985736;28;20058;-58
2023/10/06 05:04:37;;;;;;;9.87;4.70;;;;;;;;;;4984245;28;20031;-59
2023/10/06 05:07:03;;;;;;;8.15;3.70;;;;;;;;;;4982121;28;20571;-58
2023/10/06 05:09:28;;;;;;;6.50;3.63;;;;;;;;;;4979778;28;20061;-61
2023/10/06 05:11:56;;;;;;;8.90;4.68;;;;;;;;;;4976508;28;20510;-61
2023/10/06 05:14:23;;;;;;;8.40;4.22;;;;;;;;;;4975858;28;20081;-61
2023/10/06 05:16:51;;;;;;;9.05;4.07;;;;;;;;;;4975372;28;20429;-60
2023/10/06 05:19:17;;;;;;;8.27;4.30;;;;;;;;;;4972191;28;20033;-59
2023/10/06 05:21:42;;;;;;;10.02;3.78;;;;;;;;;;4980752;28;20069;-59
2023/10/06 05:24:08;;;;;;;8.70;4.20;;;;;;;;;;4972121;28;20031;-60
2023/10/06 05:26:34;;;;;;;7.88;4.05;;;;;;;;;;4971237;28;20282;-62
2023/10/06 05:28:59;;;;;;;9.32;3.72;;;;;;;;;;4972788;28;20042;-61
2023/10/06 05:31:24;;;;;;;7.80;3.78;;;;;;;;;;4972677;28;20053;-63
2023/10/06 05:33:51;;;;;;;7.93;3.83;;;;;;;;;;4972204;28;20050;-61
2023/10/06 05:36:16;;;;;;;8.77;3.53;;;;;;;;;;4972771;28;20372;-61
2023/10/06 05:38:42;;;;;;;8.52;4.32;;;;;;;;;;4979380;28;20118;-62
2023/10/06 05:41:11;;;;;;;7.88;3.85;;;;;;;;;;4968921;28;20042;-62
2023/10/06 05:43:36;;;;;;;7.80;4.00;;;;;;;;;;4964474;28;20058;-61
2023/10/06 05:46:03;;;;;;;8.05;4.15;;;;;;;;;;4984973;28;20039;-62
2023/10/06 05:48:30;;;;;;;7.20;3.83;;;;;;;;;;4983928;28;20034;-61
2023/10/06 05:51:04;;;;;;;7.40;3.65;;;;;;;;;;4982713;28;20034;-61
2023/10/06 05:53:34;;;;;;;5.75;3.67;;;;;;;;;;4976969;28;20495;-62
2023/10/06 05:56:02;;;;;;;6.43;3.83;;;;;;;;;;4970092;28;20511;-62
2023/10/06 05:58:30;;;;;;;8.45;3.78;;;;;;;;;;4975168;28;20038;-62
2023/10/06 06:01:05;;;;;;;8.65;3.53;;;;;;;;;;4971006;28;20137;-62
2023/10/06 06:03:30;;;;;;;8.43;3.97;;;;;;;;;;4973728;28;20035;-63
2023/10/06 06:06:08;;;;;;;7.40;3.67;;;;;;;;;;4960943;28;20052;-62
2023/10/06 06:08:33;;;;;;;8.13;3.90;;;;;;;;;;4972593;28;20793;-61
2023/10/06 06:10:59;;;;;;;7.82;3.80;;;;;;;;;;4952989;28;20054;-62
2023/10/06 06:13:25;;;;;;;9.13;4.40;;;;;;;;;;4981689;28;20054;-60
2023/10/06 06:15:50;;;;;;;10.32;4.10;;;;;;;;;;4984199;28;20199;-60
2023/10/06 06:18:15;;;;;;;8.73;4.20;;;;;;;;;;4984627;28;20066;-62
2023/10/06 06:20:45;;;;;;;6.15;3.80;;;;;;;;;;4983693;28;20137;-62
2023/10/06 06:23:15;;;;;;;7.68;4.38;;;;;;;;;;4982608;28;20034;-61
2023/10/06 06:25:40;;;;;;;8.15;4.22;;;;;;;;;;4973550;28;20523;-62
2023/10/06 06:28:05;;;;;;;6.93;3.88;;;;;;;;;;4972529;28;20173;-62
2023/10/06 06:30:33;;;;;;;8.50;4.32;;;;;;;;;;4972487;28;20161;-62
2023/10/06 06:33:01;;;;;;;8.98;4.30;;;;;;;;;;4981785;28;20474;-61
2023/10/06 06:35:26;;;;;;;8.73;4.38;;;;;;;;;;4971976;28;20054;-61
2023/10/06 06:37:52;;;;;;;8.40;4.53;;;;;;;;;;4970268;28;20035;-61
2023/10/06 06:40:21;;;;;;;10.68;4.30;;;;;;;;;;4970639;28;20069;-60
2023/10/06 06:42:49;;;;;;;10.10;4.18;;;;;;;;;;4972874;28;20090;-60
2023/10/06 06:45:14;;;;;;;8.40;4.18;;;;;;;;;;4975251;28;20035;-60
2023/10/06 06:47:41;;;;;;;10.57;4.38;;;;;;;;;;4963967;28;20035;-62
2023/10/06 06:50:07;;;;;;;7.80;4.03;;;;;;;;;;4985725;28;20503;-59
2023/10/06 06:52:34;;;;;;;8.65;4.38;;;;;;;;;;4976868;28;20671;-57
2023/10/06 06:54:59;;;;;;;7.63;4.00;;;;;;;;;;4969380;28;20116;-57
2023/10/06 06:57:25;;;;;;;8.68;4.38;;;;;;;;;;4954968;28;20467;-58
2023/10/06 06:59:50;;;;;;;11.32;4.75;;;;;;;;;;4953093;28;20434;-58
2023/10/06 07:02:15;;;;;;;11.13;4.13;;;;;;;;;;4970789;28;20053;-58
2023/10/06 07:04:40;;;;;;;11.50;3.92;;;;;;;;;;4974060;28;20774;-57
2023/10/06 07:07:06;;;;;;;9.23;4.43;;;;;;;;;;4975922;28;20034;-60
2023/10/06 07:09:31;;;;;;;7.72;4.20;;;;;;;;;;4960507;28;20049;-58
2023/10/06 07:11:57;;;;;;;7.70;4.40;;;;;;;;;;4977113;28;20038;-59
2023/10/06 07:14:22;;;;;;;7.60;4.07;;;;;;;;;;4981649;28;20285;-58
2023/10/06 07:16:48;;;;;;;8.13;4.22;;;;;;;;;;4977130;28;20764;-57
2023/10/06 07:19:17;;;;;;;9.80;4.90;;;;;;;;;;4974773;28;20042;-58
2023/10/06 07:21:43;;;;;;;9.38;4.05;;;;;;;;;;4975454;28;20311;-56
2023/10/06 07:24:10;;;;;;;8.63;4.18;;;;;;;;;;4972825;28;20080;-60
2023/10/06 07:26:36;;;;;;;9.25;4.72;;;;;;;;;;4973988;28;20031;-58
2023/10/06 07:29:05;;;;;;;10.23;4.30;;;;;;;;;;4971546;28;20038;-58
2023/10/06 07:31:30;;;;;;;8.23;4.38;;;;;;;;;;4974977;28;20133;-57
2023/10/06 07:33:57;;;;;;;10.50;4.20;;;;;;;;;;4974489;28;20461;-58
2023/10/06 07:36:23;;;;;;;6.20;3.75;;;;;;;;;;4968601;28;20031;-59
2023/10/06 07:38:48;;;;;;;8.02;4.32;;;;;;;;;;4969063;28;20080;-58
2023/10/06 07:41:23;;;;;;;10.02;4.38;;;;;;;;;;4971668;28;20188;-58
2023/10/06 07:43:48;;;;;;;7.82;4.25;;;;;;;;;;4954878;28;20061;-59
2023/10/06 07:46:15;;;;;;;8.77;4.30;;;;;;;;;;4976056;28;20311;-57
2023/10/06 07:48:41;;;;;;;8.00;3.90;;;;;;;;;;4969763;28;20023;-59
2023/10/06 07:51:07;;;;;;;7.07;4.38;;;;;;;;;;4961129;28;20107;-59
2023/10/06 07:53:35;;;;;;;7.07;3.75;;;;;;;;;;4971315;28;20041;-57
2023/10/06 07:56:06;;;;;;;7.18;4.22;;;;;;;;;;4985214;28;20083;-58
2023/10/06 07:58:37;;;;;;;6.90;3.92;;;;;;;;;;4984651;28;20053;-58
2023/10/06 08:01:05;;;;;;;9.07;3.85;;;;;;;;;;4968013;28;20487;-58
2023/10/06 08:03:30;;;;;;;7.40;4.22;;;;;;;;;;4980325;28;20046;-58
2023/10/06 08:05:59;;;;;;;6.68;3.63;;;;;;;;;;4970191;28;20109;-58
2023/10/06 08:08:25;;;;;;;8.33;4.07;;;;;;;;;;4986513;28;20081;-56
2023/10/06 08:10:52;;;;;;;6.60;3.67;;;;;;;;;;4983465;28;20035;-56
2023/10/06 08:13:18;;;;;;;6.13;3.75;;;;;;;;;;4976842;28;20336;-59
2023/10/06 08:15:44;;;;;;;8.35;4.50;;;;;;;;;;4985903;28;20565;-59
2023/10/06 08:18:12;;;;;;;6.47;3.88;;;;;;;;;;4984735;28;20517;-59
2023/10/06 08:20:40;;;;;;;7.25;4.10;;;;;;;;;;4985262;28;20058;-57
2023/10/06 08:23:06;;;;;;;6.30;4.07;;;;;;;;;;4983645;28;20054;-57
2023/10/06 08:25:32;;;;;;;8.65;4.35;;;;;;;;;;4962360;28;20125;-56
2023/10/06 08:27:57;;;;;;;7.18;4.05;;;;;;;;;;4980117;28;20530;-56
2023/10/06 08:30:23;;;;;;;8.77;4.15;;;;;;;;;;4979637;28;20055;-58
2023/10/06 08:32:49;;;;;;;6.57;3.70;;;;;;;;;;4980135;28;20050;-57
2023/10/06 08:35:15;;;;;;;9.95;4.03;;;;;;;;;;4965905;28;20030;-56
2023/10/06 08:37:43;;;;;;;7.75;3.70;;;;;;;;;;4974219;28;20522;-57
2023/10/06 08:40:16;;;;;;;7.43;3.80;;;;;;;;;;4980189;28;20058;-57
2023/10/06 08:43:02;;;;;;;6.70;4.07;;;;;;;;;;4976901;28;20042;-56
2023/10/06 08:45:28;;;;;;;5.88;3.85;;;;;;;;;;4983191;28;20034;-56
2023/10/06 08:47:58;;;;;;;5.93;3.70;;;;;;;;;;4984629;28;20573;-58
2023/10/06 08:50:24;;;;;;;8.50;4.28;;;;;;;;;;4985989;28;20042;-58
2023/10/06 08:52:50;;;;;;;6.05;3.78;;;;;;;;;;4984460;28;20045;-62
2023/10/06 08:55:17;;;;;;;7.95;4.32;;;;;;;;;;4979362;28;20372;-60
2023/10/06 08:57:45;;;;;;;8.88;4.65;;;;;;;;;;4975953;28;20050;-60
2023/10/06 09:00:11;;;;;;;10.32;4.53;;;;;;;;;;4982873;28;20042;-60
2023/10/06 09:02:36;;;;;;;9.45;4.63;;;;;;;;;;4984384;28;20837;-59
2023/10/06 09:05:01;;;;;;;9.90;5.23;;;;;;;;;;4983870;28;20085;-59
2023/10/06 09:07:27;;;;;;;11.95;4.90;;;;;;;;;;4983138;28;20277;-58
2023/10/06 09:09:52;;;;;;;8.93;4.95;;;;;;;;;;4984830;28;20519;-60
2023/10/06 09:12:24;;;;;;;8.53;4.97;;;;;;;;;;4976086;28;20117;-59
2023/10/06 09:14:54;;;;;;;9.02;5.53;;;;;;;;;;4976028;28;20325;-60
2023/10/06 09:17:30;;;;;;;8.82;5.32;;;;;;;;;;4964621;28;20120;-61
2023/10/06 09:19:55;;;;;;;10.27;4.93;;;;;;;;;;4980337;28;20077;-60
2023/10/06 09:22:24;;;;;;;10.05;5.57;;;;;;;;;;4994584;28;20076;-61
2023/10/06 09:24:59;;;;;;;12.60;5.97;;;;;;;;;;4984485;28;20038;-61
2023/10/06 09:27:25;;;;;;;8.38;5.50;;;;;;;;;;4978780;28;20042;-60
2023/10/06 09:30:00;;;;;;;8.10;5.13;;;;;;;;;;4976557;28;20264;-60
2023/10/06 09:32:25;;;;;;;9.57;6.00;;;;;;;;;;4976729;28;20042;-61
2023/10/06 09:34:53;;;;;;;17.77;5.53;;;;;;;;;;4999337;28;20049;-61
2023/10/06 09:37:19;;;;;;;10.10;5.25;;;;;;;;;;4988544;28;20104;-60
2023/10/06 09:39:45;;;;;;;10.48;5.00;;;;;;;;;;4973705;28;20051;-60
2023/10/06 09:42:10;;;;;;;11.23;5.70;;;;;;;;;;4964635;28;20030;-60
2023/10/06 09:44:35;;;;;;;12.32;5.72;;;;;;;;;;4959367;28;20043;-61
2023/10/06 09:47:01;;;;;;;10.23;5.30;;;;;;;;;;4968471;28;20050;-59
2023/10/06 09:49:26;;;;;;;8.18;5.30;;;;;;;;;;4966027;28;20305;-61
2023/10/06 09:51:52;;;;;;;9.75;5.28;;;;;;;;;;4982660;28;20109;-61
2023/10/06 09:54:19;;;;;;;8.82;5.32;;;;;;;;;;4974842;28;20037;-61
2023/10/06 09:56:45;;;;;;;9.50;5.10;;;;;;;;;;4976556;28;20038;-60
2023/10/06 09:59:13;;;;;;;10.63;5.60;;;;;;;;;;4978249;28;20018;-61
2023/10/06 10:01:39;;;;;;;10.48;5.45;;;;;;;;;;4972913;28;20547;-60
2023/10/06 10:04:04;;;;;;;10.85;5.78;;;;;;;;;;4981741;28;20029;-60
2023/10/06 10:06:30;;;;;;;9.00;5.68;;;;;;;;;;4958426;28;20510;-60
2023/10/06 10:08:55;;;;;;;11.02;5.53;;;;;;;;;;4979916;28;20019;-61
2023/10/06 10:11:29;;;;;;;32.70;6.72;;;;;;;;;;4972624;28;20034;-61
2023/10/06 10:13:54;;;;;;;12.18;5.30;;;;;;;;;;4954123;28;20023;-60
2023/10/06 10:16:36;;;;;;;12.52;5.82;;;;;;;;;;4970956;28;20042;-61
2023/10/06 10:19:03;;;;;;;12.20;5.35;;;;;;;;;;4972842;28;20051;-61
2023/10/06 10:21:28;;;;;;;12.82;5.63;;;;;;;;;;4974016;28;20054;-61
2023/10/06 10:23:54;;;;;;;9.88;5.55;;;;;;;;;;4976522;28;20053;-59
2023/10/06 10:26:22;;;;;;;10.25;5.57;;;;;;;;;;4976698;28;20034;-60
2023/10/06 10:29:07;;;;;;;10.60;5.53;;;;;;;;;;4974138;28;20053;-62
2023/10/06 10:31:39;;;;;;;9.90;5.57;;;;;;;;;;4975279;28;20045;-61
2023/10/06 10:34:07;;;;;;;11.38;5.28;;;;;;;;;;4975206;28;20129;-62
2023/10/06 10:36:33;;;;;;;10.82;5.18;;;;;;;;;;4975653;28;20229;-61
2023/10/06 10:39:09;;;;;;;11.55;5.13;;;;;;;;;;4974457;28;20135;-61
2023/10/06 10:41:36;;;;;;;9.32;5.35;;;;;;;;;;4978395;28;20080;-60
2023/10/06 10:44:03;;;;;;;7.30;5.25;;;;;;;;;;4962871;28;20054;-60
2023/10/06 10:46:31;;;;;;;13.48;4.90;;;;;;;;;;4975560;28;20039;-61
2023/10/06 10:48:58;;;;;;;8.50;5.32;;;;;;;;;;4975900;28;20057;-60
2023/10/06 10:51:24;;;;;;;12.48;4.93;;;;;;;;;;4971696;28;20050;-60
2023/10/06 10:53:50;;;;;;;9.80;4.68;;;;;;;;;;4956421;28;20031;-60
2023/10/06 10:56:18;;;;;;;9.40;4.85;;;;;;;;;;4965049;28;20062;-59
2023/10/06 10:58:44;;;;;;;7.13;4.43;;;;;;;;;;4974182;28;20482;-59
2023/10/06 11:01:29;;;;;;;9.27;5.10;;;;;;;;;;4973896;28;20050;-59
2023/10/06 11:04:13;;;;;;;10.13;5.20;;;;;;;;;;4975253;28;20160;-60
2023/10/06 11:06:44;;;;;;;7.78;4.60;;;;;;;;;;4977568;28;20046;-60
2023/10/06 11:09:25;;;;;;;9.35;4.25;;;;;;;;;;4975569;28;20070;-60
2023/10/06 11:11:50;;;;;;;8.05;4.88;;;;;;;;;;4978196;28;20046;-60
2023/10/06 11:14:16;;;;;;;9.80;4.63;;;;;;;;;;4978501;28;20478;-60
2023/10/06 11:16:47;;;;;;;7.55;4.43;;;;;;;;;;4976022;28;20034;-60
2023/10/06 11:19:13;;;;;;;7.47;4.40;;;;;;;;;;4975376;28;20204;-60
2023/10/06 11:21:38;;;;;;;7.45;4.35;;;;;;;;;;4975933;28;20291;-59
2023/10/06 11:24:05;;;;;;;7.90;4.32;;;;;;;;;;4973726;28;20056;-59
2023/10/06 11:26:33;;;;;;;6.97;4.05;;;;;;;;;;4970464;28;20050;-60
2023/10/06 11:29:00;;;;;;;7.70;4.38;;;;;;;;;;4959352;28;20088;-59
2023/10/06 11:31:26;;;;;;;10.00;4.95;;;;;;;;;;4981420;28;20069;-59
2023/10/06 11:33:51;;;;;;;10.57;4.43;;;;;;;;;;4973593;28;20038;-59
2023/10/06 11:36:17;;;;;;;9.13;4.22;;;;;;;;;;4973134;28;20034;-59
2023/10/06 11:38:43;;;;;;;7.03;4.28;;;;;;;;;;4971525;28;20042;-59
2023/10/06 11:41:08;;;;;;;9.38;4.55;;;;;;;;;;4978332;28;20046;-60
2023/10/06 11:43:33;;;;;;;10.43;4.50;;;;;;;;;;4975942;28;20081;-57
2023/10/06 11:46:02;;;;;;;8.45;4.13;;;;;;;;;;4976661;28;20296;-57
2023/10/06 11:48:32;;;;;;;8.55;4.13;;;;;;;;;;4974566;28;20178;-58
2023/10/06 11:51:06;;;;;;;8.23;4.30;;;;;;;;;;4976990;28;20483;-59
2023/10/06 11:53:32;;;;;;;6.05;3.67;;;;;;;;;;4974037;28;20125;-58
2023/10/06 11:56:07;;;;;;;7.10;4.05;;;;;;;;;;4972120;28;20053;-59
2023/10/06 11:58:35;;;;;;;7.07;4.10;;;;;;;;;;4973666;28;20062;-59
2023/10/06 12:01:01;;;;;;;7.80;3.72;;;;;;;;;;4986764;28;20093;-59
2023/10/06 12:03:42;;;;;;;6.55;3.80;;;;;;;;;;5003832;28;20032;-60
2023/10/06 12:06:11;;;;;;;7.95;3.47;;;;;;;;;;4987026;28;20356;-59
2023/10/06 12:08:52;;;;;;;7.97;3.53;;;;;;;;;;4987095;28;20046;-60
2023/10/06 12:11:17;;;;;;;6.70;3.33;;;;;;;;;;4983498;28;20034;-60
2023/10/06 12:13:42;;;;;;;9.68;3.50;;;;;;;;;;4986876;28;20037;-58
2023/10/06 12:16:11;;;;;;;8.00;3.47;;;;;;;;;;4986819;28;20053;-59
2023/10/06 12:18:36;;;;;;;7.20;3.47;;;;;;;;;;4983860;28;20042;-60
2023/10/06 12:21:02;;;;;;;7.50;3.22;;;;;;;;;;4983872;28;20184;-60
2023/10/06 12:23:27;;;;;;;5.63;3.50;;;;;;;;;;4984634;28;20499;-62
2023/10/06 12:25:55;;;;;;;6.57;3.25;;;;;;;;;;4985245;28;20119;-60
2023/10/06 12:28:20;;;;;;;6.30;3.22;;;;;;;;;;4984051;28;20038;-60
2023/10/06 12:30:45;;;;;;;7.13;3.40;;;;;;;;;;4988398;28;20510;-59
2023/10/06 12:33:11;;;;;;;6.07;3.20;;;;;;;;;;4993864;28;20038;-59
2023/10/06 12:35:36;;;;;;;6.05;2.92;;;;;;;;;;4986519;28;20663;-59
2023/10/06 12:38:02;;;;;;;5.65;2.90;;;;;;;;;;4986617;28;20422;-57
2023/10/06 12:40:27;;;;;;;6.65;3.00;;;;;;;;;;4985955;28;20462;-59
2023/10/06 12:42:52;;;;;;;5.57;3.20;;;;;;;;;;4984822;28;20096;-59
2023/10/06 12:45:17;;;;;;;7.05;3.17;;;;;;;;;;4986722;28;20787;-58
2023/10/06 12:47:46;;;;;;;7.35;3.53;;;;;;;;;;4986315;28;20555;-58
2023/10/06 12:50:13;;;;;;;6.32;3.25;;;;;;;;;;4983933;28;20046;-59
2023/10/06 12:52:39;;;;;;;8.45;3.42;;;;;;;;;;4984554;28;20089;-59
2023/10/06 12:55:10;;;;;;;6.53;3.17;;;;;;;;;;4984294;28;20511;-59
2023/10/06 12:57:40;;;;;;;6.28;3.10;;;;;;;;;;4981229;28;20340;-59
2023/10/06 13:00:06;;;;;;;7.05;3.20;;;;;;;;;;4972660;28;20423;-59
2023/10/06 13:02:32;;;;;;;7.30;3.40;;;;;;;;;;4984619;28;20103;-59
2023/10/06 13:05:04;;;;;;;6.60;3.28;;;;;;;;;;4977873;28;20531;-59
2023/10/06 13:07:31;;;;;;;6.43;3.20;;;;;;;;;;4984683;28;20507;-58
2023/10/06 13:09:58;;;;;;;5.93;2.88;;;;;;;;;;4985043;28;20061;-57
2023/10/06 13:12:25;;;;;;;6.97;2.90;;;;;;;;;;4983937;28;20038;-59
2023/10/06 13:14:51;;;;;;;5.15;3.08;;;;;;;;;;4965103;28;20039;-59
2023/10/06 13:17:17;;;;;;;5.53;2.88;;;;;;;;;;4985155;28;20049;-58
2023/10/06 13:19:42;;;;;;;7.37;3.00;;;;;;;;;;4984464;28;20498;-60
2023/10/06 13:22:07;;;;;;;5.20;3.15;;;;;;;;;;4983543;28;20273;-59
2023/10/06 13:24:34;;;;;;;6.18;3.55;;;;;;;;;;4963973;28;20018;-60
2023/10/06 13:26:59;;;;;;;5.00;3.30;;;;;;;;;;4983860;28;20038;-59
2023/10/06 13:29:24;;;;;;;6.22;3.47;;;;;;;;;;4978402;28;20410;-61
2023/10/06 13:31:50;;;;;;;5.95;3.60;;;;;;;;;;4982237;28;20448;-61
2023/10/06 13:34:17;;;;;;;5.97;3.10;;;;;;;;;;4983450;28;20046;-60
2023/10/06 13:36:42;;;;;;;6.78;2.95;;;;;;;;;;4984093;28;20022;-61
2023/10/06 13:39:10;;;;;;;7.50;3.20;;;;;;;;;;4984343;28;20024;-59
2023/10/06 13:41:41;;;;;;;8.40;3.03;;;;;;;;;;4983815;28;20301;-60
2023/10/06 13:44:06;;;;;;;5.03;3.08;;;;;;;;;;4984100;28;20577;-61
2023/10/06 13:46:31;;;;;;;6.93;3.00;;;;;;;;;;4985405;28;20431;-61
2023/10/06 13:48:57;;;;;;;5.90;3.53;;;;;;;;;;4982058;28;20033;-60
2023/10/06 13:51:22;;;;;;;6.57;3.58;;;;;;;;;;4982568;28;20196;-61
2023/10/06 13:53:47;;;;;;;8.77;3.30;;;;;;;;;;4984558;28;20049;-59
2023/10/06 13:56:13;;;;;;;5.57;2.95;;;;;;;;;;4984851;28;20270;-59
2023/10/06 13:58:38;;;;;;;6.32;2.80;;;;;;;;;;4987346;28;20724;-59
2023/10/06 14:01:04;;;;;;;5.82;2.80;;;;;;;;;;4986947;28;20022;-59
2023/10/06 14:03:30;;;;;;;4.90;2.75;;;;;;;;;;4985152;28;20062;-60
2023/10/06 14:05:57;;;;;;;7.10;2.95;;;;;;;;;;4987097;28;20069;-59
2023/10/06 14:08:22;;;;;;;4.85;2.92;;;;;;;;;;4988222;28;20046;-59
2023/10/06 14:10:49;;;;;;;6.13;3.20;;;;;;;;;;4987142;28;20030;-59
2023/10/06 14:15:49;;;;;;;6.80;3.15;;;;;;;;;;4987312;28;20526;-60
2023/10/06 14:18:16;;;;;;;5.38;2.90;;;;;;;;;;4983488;28;20031;-59
2023/10/06 14:20:52;;;;;;;6.57;3.40;;;;;;;;;;4955819;28;20064;-59
2023/10/06 14:23:19;;;;;;;5.43;2.70;;;;;;;;;;4986609;28;20138;-61
2023/10/06 14:25:45;;;;;;;5.32;2.75;;;;;;;;;;4986315;28;20514;-59
2023/10/06 14:28:10;;;;;;;5.25;2.33;;;;;;;;;;4987459;28;20117;-61
2023/10/06 14:30:42;;;;;;;6.13;2.70;;;;;;;;;;4987526;28;20042;-60
2023/10/06 14:33:16;;;;;;;6.47;2.80;;;;;;;;;;4988006;28;20042;-59
2023/10/06 14:35:53;;;;;;;4.72;2.38;;;;;;;;;;4988019;28;20630;-59
2023/10/06 14:46:31;;;;;;;4.55;2.58;;;;;;;;;;4973151;28;20049;-59
2023/10/06 14:49:01;;;;;;;5.15;2.80;;;;;;;;;;4966183;28;20035;-59
2023/10/06 14:51:29;;;;;;;6.93;2.80;;;;;;;;;;4955964;28;20061;-58
2023/10/06 14:53:57;;;;;;;6.53;2.95;;;;;;;;;;4974816;28;20040;-59
2023/10/06 14:56:23;;;;;;;4.47;2.75;;;;;;;;;;4979891;28;20125;-58
2023/10/06 14:58:50;;;;;;;6.00;2.88;;;;;;;;;;4974454;28;20146;-59
2023/10/06 15:01:15;;;;;;;5.43;3.20;;;;;;;;;;4971387;28;20156;-59
2023/10/06 15:03:40;;;;;;;6.30;3.23;;;;;;;;;;4974422;28;20097;-61
2023/10/06 15:06:06;;;;;;;6.80;2.75;;;;;;;;;;4974265;28;20399;-59